createdAt,value
2023-03-12T00:00:26.452Z,100633.47
2023-03-12T00:03:18.989Z,100642.72
2023-03-12T00:05:53.835Z,100633.56
2023-03-12T00:08:26.354Z,100645.16
2023-03-12T00:10:58.541Z,100635.25
2023-03-12T00:13:30.656Z,100638.28
2023-03-12T00:16:08.122Z,100628.91
2023-03-12T00:18:40.236Z,100633.56
2023-03-12T00:21:14.596Z,100629.59
2023-03-12T00:23:47.116Z,100637.63
2023-03-12T00:26:20.115Z,100627.13
2023-03-12T00:29:03.096Z,100631.72
2023-03-12T00:31:36.623Z,100644.13
2023-03-12T00:34:08.796Z,100645.66
2023-03-12T00:36:43.115Z,100626.97
2023-03-12T00:39:15.459Z,100633.09
2023-03-12T00:41:47.155Z,100634.06
2023-03-12T00:44:19.132Z,100649.97
2023-03-12T00:46:50.754Z,100646.38
2023-03-12T00:49:22.892Z,100659.03
2023-03-12T00:51:57.282Z,100658.78
2023-03-12T00:54:29.290Z,100660.53
2023-03-12T00:57:01.096Z,100664.25
2023-03-12T00:59:33.129Z,100662.28
2023-03-12T01:02:04.693Z,100663.16
2023-03-12T01:04:36.718Z,100659.06
2023-03-12T01:07:11.154Z,100658.66
2023-03-12T01:09:43.277Z,100661.41
2023-03-12T01:12:15.317Z,100668.25
2023-03-12T01:14:47.791Z,100664.56
2023-03-12T01:17:20.014Z,100675.34
2023-03-12T01:19:52.413Z,100668.22
2023-03-12T01:22:27.057Z,100660.91
2023-03-12T01:24:59.302Z,100673.72
2023-03-12T01:27:31.300Z,100661.78
2023-03-12T01:30:03.637Z,100651.84
2023-03-12T01:32:35.743Z,100665.56
2023-03-12T01:35:09.298Z,100672.38
2023-03-12T01:37:44.014Z,100677.06
2023-03-12T01:40:25.649Z,100682.75
2023-03-12T01:42:57.995Z,100673.34
2023-03-12T01:46:03.067Z,100683.50
2023-03-12T01:48:40.279Z,100681.44
2023-03-12T01:51:15.694Z,100678.50
2023-03-12T01:53:54.499Z,100690.88
2023-03-12T01:56:31.631Z,100684.13
2023-03-12T01:59:07.464Z,100681.84
2023-03-12T02:01:41.215Z,100693.75
2023-03-12T02:04:14.539Z,100702.34
2023-03-12T02:06:53.109Z,100703.19
2023-03-12T02:09:27.970Z,100706.47
2023-03-12T02:12:00.420Z,100711.34
2023-03-12T02:14:32.747Z,100709.03
2023-03-12T02:17:05.078Z,100715.63
2023-03-12T02:19:45.780Z,100713.78
2023-03-12T02:22:18.357Z,100709.03
2023-03-12T02:25:03.938Z,100708.38
2023-03-12T02:27:41.010Z,100712.81
2023-03-12T02:30:16.292Z,100711.84
2023-03-12T02:32:49.872Z,100714.19
2023-03-12T02:35:21.648Z,100718.69
2023-03-12T02:37:55.999Z,100716.31
2023-03-12T02:40:32.617Z,100726.28
2023-03-12T02:43:09.971Z,100730.91
2023-03-12T02:45:42.474Z,100733.50
2023-03-12T02:48:14.677Z,100743.91
2023-03-12T02:50:46.539Z,100741.41
2023-03-12T02:53:18.763Z,100739.66
2023-03-12T02:55:50.292Z,100738.78
2023-03-12T02:58:25.131Z,100741.31
2023-03-12T03:00:56.896Z,100745.97
2023-03-12T03:03:29.032Z,100743.31
2023-03-12T03:06:00.674Z,100748.31
2023-03-12T03:08:32.638Z,100748.03
2023-03-12T03:11:04.213Z,100754.06
2023-03-12T03:13:39.075Z,100757.47
2023-03-12T03:16:12.754Z,100752.94
2023-03-12T03:18:44.950Z,100751.63
2023-03-12T03:21:17.393Z,100759.94
2023-03-12T03:23:51.203Z,100759.28
2023-03-12T03:26:25.295Z,100768.25
2023-03-12T03:28:59.993Z,100763.44
2023-03-12T03:31:31.776Z,100768.63
2023-03-12T03:34:03.855Z,100777.72
2023-03-12T03:36:35.627Z,100770.78
2023-03-12T03:39:07.752Z,100776.97
2023-03-12T03:41:39.431Z,100780.97
2023-03-12T03:44:14.192Z,100773.69
2023-03-12T03:46:47.182Z,100779.25
2023-03-12T03:49:19.814Z,100778.78
2023-03-12T03:51:52.038Z,100770.22
2023-03-12T03:54:24.010Z,100777.25
2023-03-12T03:56:55.616Z,100782.81
2023-03-12T03:59:30.431Z,100782.72
2023-03-12T04:02:02.604Z,100786.28
2023-03-12T04:04:34.611Z,100794.22
2023-03-12T04:07:06.275Z,100797.25
2023-03-12T04:09:38.435Z,100796.72
2023-03-12T04:12:10.533Z,100801.13
2023-03-12T04:14:47.897Z,100806.38
2023-03-12T04:17:19.509Z,100799.66
2023-03-12T04:19:51.721Z,100805.28
2023-03-12T04:22:23.688Z,100803.25
2023-03-12T04:24:56.030Z,100811.94
2023-03-12T04:27:28.077Z,100803.34
2023-03-12T04:30:03.039Z,100805.13
2023-03-12T04:32:35.102Z,100806.31
2023-03-12T04:35:08.218Z,100804.56
2023-03-12T04:37:40.172Z,100813.69
2023-03-12T04:40:15.590Z,100809.44
2023-03-12T04:42:48.183Z,100804.25
2023-03-12T04:45:23.195Z,100808.31
2023-03-12T04:47:55.128Z,100818.88
2023-03-12T04:50:27.536Z,100820.34
2023-03-12T04:52:59.498Z,100821.03
2023-03-12T04:55:31.818Z,100812.03
2023-03-12T04:58:03.695Z,100820.34
2023-03-12T05:00:38.956Z,100812.88
2023-03-12T05:03:11.364Z,100823.81
2023-03-12T05:05:43.757Z,100828.25
2023-03-12T05:08:15.699Z,100830.25
2023-03-12T05:10:48.365Z,100833.50
2023-03-12T05:13:21.883Z,100834.31
2023-03-12T05:15:57.472Z,100830.31
2023-03-12T05:18:29.545Z,100832.88
2023-03-12T05:21:03.398Z,100837.34
2023-03-12T05:23:36.316Z,100834.84
2023-03-12T05:26:09.537Z,100837.00
2023-03-12T05:28:41.516Z,100831.06
2023-03-12T05:31:20.893Z,100832.34
2023-03-12T05:33:53.227Z,100829.47
2023-03-12T05:36:25.562Z,100835.81
2023-03-12T05:38:57.550Z,100830.44
2023-03-12T05:41:31.968Z,100826.91
2023-03-12T05:44:04.185Z,100828.72
2023-03-12T05:46:39.065Z,100835.91
2023-03-12T05:49:10.847Z,100826.72
2023-03-12T05:51:43.647Z,100833.63
2023-03-12T05:54:15.558Z,100841.16
2023-03-12T05:56:48.727Z,100831.69
2023-03-12T05:59:20.545Z,100841.44
2023-03-12T06:01:55.630Z,100837.81
2023-03-12T06:04:27.758Z,100848.34
2023-03-12T06:06:59.890Z,100842.16
2023-03-12T06:09:31.711Z,100844.13
2023-03-12T06:12:03.868Z,100841.16
2023-03-12T06:14:35.824Z,100843.81
2023-03-12T06:17:10.963Z,100840.56
2023-03-12T06:19:44.252Z,100840.16
2023-03-12T06:22:16.473Z,100842.53
2023-03-12T06:24:51.331Z,100843.34
2023-03-12T06:27:23.508Z,100846.97
2023-03-12T06:29:55.343Z,100851.63
2023-03-12T06:32:30.265Z,100848.09
2023-03-12T06:35:04.763Z,100853.41
2023-03-12T06:37:36.952Z,100853.22
2023-03-12T06:40:11.417Z,100856.34
2023-03-12T06:42:43.659Z,100861.63
2023-03-12T06:45:15.630Z,100859.59
2023-03-12T06:47:50.454Z,100866.28
2023-03-12T06:50:22.614Z,100861.38
2023-03-12T06:52:54.943Z,100859.69
2023-03-12T06:55:26.704Z,100867.91
2023-03-12T06:57:58.995Z,100868.47
2023-03-12T07:00:31.715Z,100861.47
2023-03-12T07:03:07.232Z,100867.59
2023-03-12T07:05:39.407Z,100865.03
2023-03-12T07:08:12.178Z,100874.75
2023-03-12T07:10:44.327Z,100871.91
2023-03-12T07:13:16.913Z,100873.50
2023-03-12T07:15:49.448Z,100861.25
2023-03-12T07:18:24.841Z,100865.97
2023-03-12T07:20:57.131Z,100871.97
2023-03-12T07:23:29.540Z,100864.59
2023-03-12T07:26:01.726Z,100869.19
2023-03-12T07:28:34.284Z,100867.06
2023-03-12T07:31:07.539Z,100871.22
2023-03-12T07:33:42.771Z,100870.63
2023-03-12T07:36:15.120Z,100876.88
2023-03-12T07:38:47.659Z,100891.50
2023-03-12T07:41:19.548Z,100887.66
2023-03-12T07:43:52.146Z,100892.84
2023-03-12T07:46:24.344Z,100887.63
2023-03-12T07:48:59.283Z,100885.81
2023-03-12T07:51:31.105Z,100885.47
2023-03-12T07:54:03.275Z,100890.03
2023-03-12T07:56:36.121Z,100896.09
2023-03-12T07:59:08.289Z,100896.38
2023-03-12T08:01:40.195Z,100896.66
2023-03-12T08:04:15.645Z,100893.44
2023-03-12T08:06:47.557Z,100895.75
2023-03-12T08:09:19.763Z,100900.31
2023-03-12T08:11:51.614Z,100902.06
2023-03-12T08:14:23.564Z,100898.19
2023-03-12T08:16:55.234Z,100900.09
2023-03-12T08:19:31.310Z,100900.31
2023-03-12T08:22:03.042Z,100903.06
2023-03-12T08:24:35.827Z,100905.81
2023-03-12T08:27:07.584Z,100901.34
2023-03-12T08:29:39.850Z,100905.34
2023-03-12T08:32:12.314Z,100912.25
2023-03-12T08:34:47.288Z,100903.91
2023-03-12T08:37:19.303Z,100903.41
2023-03-12T08:39:51.375Z,100906.22
2023-03-12T08:42:23.085Z,100902.03
2023-03-12T08:44:55.020Z,100898.66
2023-03-12T08:47:26.647Z,100897.53
2023-03-12T08:50:01.610Z,100888.53
2023-03-12T08:52:33.365Z,100899.88
2023-03-12T08:55:06.240Z,100893.22
2023-03-12T08:57:37.877Z,100885.44
2023-03-12T09:00:15.267Z,100882.91
2023-03-12T09:02:58.901Z,100883.22
2023-03-12T09:05:34.427Z,100885.31
2023-03-12T09:08:05.950Z,100888.13
2023-03-12T09:10:38.330Z,100884.94
2023-03-12T09:13:10.591Z,100889.91
2023-03-12T09:15:42.546Z,100886.59
2023-03-12T09:18:14.201Z,100884.88
2023-03-12T09:20:48.931Z,100880.78
2023-03-12T09:23:20.598Z,100885.16
2023-03-12T09:25:52.822Z,100876.22
2023-03-12T09:28:25.065Z,100882.72
2023-03-12T09:30:57.306Z,100876.66
2023-03-12T09:33:29.119Z,100870.81
2023-03-12T09:36:04.326Z,100870.41
2023-03-12T09:38:38.144Z,100871.94
2023-03-12T09:41:20.066Z,100866.16
2023-03-12T09:43:57.707Z,100872.34
2023-03-12T09:46:36.536Z,100867.75
2023-03-12T09:49:14.711Z,100872.09
2023-03-12T09:51:54.342Z,100868.25
2023-03-12T09:54:33.022Z,100872.63
2023-03-12T09:57:12.261Z,100864.91
2023-03-12T09:59:44.480Z,100860.16
2023-03-12T10:02:50.364Z,100850.09
2023-03-12T10:05:29.706Z,100853.34
2023-03-12T10:08:26.078Z,100841.00
2023-03-12T10:11:09.196Z,100845.28
2023-03-12T10:13:56.977Z,100843.75
2023-03-12T10:16:42.443Z,100851.41
2023-03-12T10:19:37.796Z,100843.41
2023-03-12T10:22:20.727Z,100832.97
2023-03-12T10:25:04.441Z,100832.00
2023-03-12T10:27:38.975Z,100827.84
2023-03-12T10:30:20.263Z,100825.84
2023-03-12T10:32:56.939Z,100827.91
2023-03-12T10:35:31.974Z,100821.59
2023-03-12T10:38:05.505Z,100823.44
2023-03-12T10:40:40.770Z,100825.25
2023-03-12T10:43:12.965Z,100827.19
2023-03-12T10:45:50.619Z,100824.34
2023-03-12T10:48:25.025Z,100809.63
2023-03-12T10:51:09.130Z,100812.50
2023-03-12T10:53:45.149Z,100808.25
2023-03-12T10:56:22.183Z,100800.53
2023-03-12T10:58:56.107Z,100787.16
2023-03-12T11:01:31.378Z,100789.06
2023-03-12T11:04:18.410Z,100783.56
2023-03-12T11:07:19.562Z,100787.22
2023-03-12T11:10:18.264Z,100778.59
2023-03-12T11:13:05.334Z,100781.56
2023-03-12T11:15:45.500Z,100771.97
2023-03-12T11:18:37.856Z,100767.28
2023-03-12T11:21:21.193Z,100777.91
2023-03-12T11:24:12.818Z,100770.50
2023-03-12T11:26:53.454Z,100760.94
2023-03-12T11:29:47.400Z,100770.63
2023-03-12T11:32:22.165Z,100766.16
2023-03-12T11:34:55.148Z,100758.63
2023-03-12T11:37:40.444Z,100760.84
2023-03-12T11:40:24.668Z,100744.47
2023-03-12T11:43:29.337Z,100749.66
2023-03-12T11:46:22.568Z,100744.75
2023-03-12T11:49:06.778Z,100747.28
2023-03-12T11:51:50.411Z,100743.94
2023-03-12T11:54:38.583Z,100745.59
2023-03-12T11:57:19.172Z,100746.41
2023-03-12T12:00:17.532Z,100747.06
2023-03-12T12:03:20.143Z,100749.44
2023-03-12T12:06:04.752Z,100736.66
2023-03-12T12:08:54.791Z,100728.84
2023-03-12T12:11:35.719Z,100717.56
2023-03-12T12:14:18.608Z,100700.72
2023-03-12T12:17:01.532Z,100696.63
2023-03-12T12:19:51.435Z,100687.25
2023-03-12T12:22:45.657Z,100690.03
2023-03-12T12:25:28.516Z,100694.84
2023-03-12T12:28:22.572Z,100685.44
2023-03-12T12:31:08.033Z,100669.28
2023-03-12T12:34:21.532Z,100650.84
2023-03-12T12:37:00.399Z,100657.75
2023-03-12T12:39:37.376Z,100655.34
2023-03-12T12:42:16.475Z,100640.88
2023-03-12T12:44:52.311Z,100636.97
2023-03-12T12:47:35.437Z,100640.53
2023-03-12T12:50:07.874Z,100628.47
2023-03-12T12:52:42.843Z,100639.44
2023-03-12T12:55:21.980Z,100625.53
2023-03-12T12:58:24.315Z,100616.44
2023-03-12T13:00:59.057Z,100616.38
2023-03-12T13:03:33.452Z,100623.66
2023-03-12T13:06:06.760Z,100622.84
2023-03-12T13:09:17.315Z,100616.16
2023-03-12T13:11:51.855Z,100611.97
2023-03-12T13:14:38.656Z,100602.50
2023-03-12T13:17:27.397Z,100601.16
2023-03-12T13:20:14.785Z,100597.16
2023-03-12T13:23:09.629Z,100599.09
2023-03-12T13:26:04.684Z,100600.06
2023-03-12T13:28:43.171Z,100596.50
2023-03-12T13:31:41.221Z,100597.09
2023-03-12T13:34:48.875Z,100594.72
2023-03-12T13:37:37.968Z,100598.63
2023-03-12T13:40:38.722Z,100589.53
2023-03-12T13:43:18.796Z,100590.50
2023-03-12T13:46:06.551Z,100592.34
2023-03-12T13:48:47.058Z,100580.41
2023-03-12T13:51:23.009Z,100550.75
2023-03-12T13:53:59.101Z,100568.88
2023-03-12T13:56:33.950Z,100586.16
2023-03-12T13:59:17.988Z,100575.94
2023-03-12T14:01:52.979Z,100560.44
2023-03-12T14:04:31.210Z,100572.66
2023-03-12T14:07:22.477Z,100573.25
2023-03-12T14:10:09.074Z,100569.34
2023-03-12T14:12:52.881Z,100557.25
2023-03-12T14:15:35.370Z,100570.59
2023-03-12T14:18:16.896Z,100557.56
2023-03-12T14:20:58.125Z,100560.19
2023-03-12T14:23:34.818Z,100562.72
2023-03-12T14:26:09.881Z,100553.53
2023-03-12T14:28:45.398Z,100552.53
2023-03-12T14:31:27.053Z,100546.38
2023-03-12T14:34:02.501Z,100555.66
2023-03-12T14:36:41.780Z,100556.53
2023-03-12T14:39:24.138Z,100561.25
2023-03-12T14:42:01.847Z,100566.03
2023-03-12T14:44:34.460Z,100557.34
2023-03-12T14:47:10.491Z,100565.50
2023-03-12T14:49:44.716Z,100554.53
2023-03-12T14:52:17.892Z,100557.50
2023-03-12T14:55:00.597Z,100552.72
2023-03-12T14:57:32.816Z,100550.59
2023-03-12T15:00:06.371Z,100539.91
2023-03-12T15:02:41.654Z,100526.84
2023-03-12T15:05:20.854Z,100525.03
2023-03-12T15:07:54.606Z,100520.97
2023-03-12T15:10:28.891Z,100509.47
2023-03-12T15:13:03.322Z,100518.88
2023-03-12T15:15:43.323Z,100513.53
2023-03-12T15:18:21.064Z,100505.22
2023-03-12T15:20:56.873Z,100499.34
2023-03-12T15:23:31.351Z,100498.75
2023-03-12T15:26:15.143Z,100499.72
2023-03-12T15:28:57.769Z,100500.88
2023-03-12T15:31:45.064Z,100503.22
2023-03-12T15:34:33.262Z,100504.69
2023-03-12T15:37:29.729Z,100507.94
2023-03-12T15:40:06.836Z,100497.38
2023-03-12T15:42:44.410Z,100496.59
2023-03-12T15:45:22.907Z,100496.88
2023-03-12T15:47:57.140Z,100484.16
2023-03-12T15:50:37.356Z,100483.00
2023-03-12T15:53:27.603Z,100488.41
2023-03-12T15:56:07.036Z,100479.47
2023-03-12T15:58:39.900Z,100486.22
2023-03-12T16:01:16.456Z,100476.91
2023-03-12T16:03:49.041Z,100476.66
2023-03-12T16:06:26.238Z,100477.47
2023-03-12T16:09:01.147Z,100470.88
2023-03-12T16:11:35.138Z,100463.91
2023-03-12T16:14:09.885Z,100471.69
2023-03-12T16:16:41.874Z,100457.75
2023-03-12T16:19:17.723Z,100454.81
2023-03-12T16:21:53.561Z,100452.63
2023-03-12T16:24:24.981Z,100453.25
2023-03-12T16:26:59.363Z,100465.09
2023-03-12T16:29:35.769Z,100460.22
2023-03-12T16:32:15.752Z,100455.09
2023-03-12T16:34:49.045Z,100442.47
2023-03-12T16:37:23.649Z,100438.41
2023-03-12T16:39:55.849Z,100441.28
2023-03-12T16:42:28.586Z,100429.44
2023-03-12T16:45:00.179Z,100425.59
2023-03-12T16:47:33.974Z,100431.56
2023-03-12T16:50:05.718Z,100430.84
2023-03-12T16:52:40.311Z,100442.75
2023-03-12T16:55:12.718Z,100451.81
2023-03-12T16:57:50.522Z,100440.09
2023-03-12T17:00:25.174Z,100442.50
2023-03-12T17:02:58.292Z,100439.72
2023-03-12T17:05:32.791Z,100438.38
2023-03-12T17:08:08.109Z,100436.50
2023-03-12T17:10:39.947Z,100436.38
2023-03-12T17:13:21.203Z,100434.34
2023-03-12T17:16:06.228Z,100416.19
2023-03-12T17:18:39.580Z,100429.88
2023-03-12T17:21:15.767Z,100426.16
2023-03-12T17:23:54.061Z,100431.75
2023-03-12T17:26:26.364Z,100422.34
2023-03-12T17:28:57.985Z,100423.06
2023-03-12T17:31:29.355Z,100412.34
2023-03-12T17:34:04.227Z,100409.25
2023-03-12T17:36:38.509Z,100406.59
2023-03-12T17:39:15.214Z,100414.09
2023-03-12T17:41:46.723Z,100407.09
2023-03-12T17:44:18.580Z,100417.91
2023-03-12T17:46:59.078Z,100401.53
2023-03-12T17:49:32.422Z,100411.16
2023-03-12T17:52:06.259Z,100406.44
2023-03-12T17:54:40.652Z,100405.94
2023-03-12T17:57:12.061Z,100408.16
2023-03-12T17:59:43.868Z,100402.09
2023-03-12T18:02:17.018Z,100414.94
2023-03-12T18:04:48.907Z,100416.13
2023-03-12T18:07:20.854Z,100399.94
2023-03-12T18:09:55.559Z,100400.16
2023-03-12T18:12:27.090Z,100395.59
2023-03-12T18:14:58.781Z,100387.50
2023-03-12T18:17:30.273Z,100382.44
2023-03-12T18:22:46.447Z,100378.38
2023-03-12T18:25:21.065Z,100376.22
2023-03-12T18:27:52.379Z,100373.59
2023-03-12T18:30:26.630Z,100368.69
2023-03-12T18:32:57.795Z,100365.31
2023-03-12T18:35:30.724Z,100369.88
2023-03-12T18:38:03.151Z,100365.31
2023-03-12T18:40:37.414Z,100372.00
2023-03-12T18:43:11.121Z,100367.41
2023-03-12T18:45:46.097Z,100370.78
2023-03-12T18:48:20.766Z,100368.00
2023-03-12T18:50:54.475Z,100357.00
2023-03-12T18:53:26.152Z,100362.19
2023-03-12T18:56:02.784Z,100356.31
2023-03-12T18:58:36.641Z,100352.31
2023-03-12T19:01:09.644Z,100346.63
2023-03-12T19:03:41.410Z,100356.19
2023-03-12T19:06:15.053Z,100349.53
2023-03-12T19:08:47.366Z,100342.78
2023-03-12T19:11:22.204Z,100340.34
2023-03-12T19:13:55.622Z,100338.41
2023-03-12T19:16:28.397Z,100326.44
2023-03-12T19:19:00.580Z,100315.22
2023-03-12T19:21:32.610Z,100321.75
2023-03-12T19:24:04.510Z,100322.69
2023-03-12T19:26:39.201Z,100311.06
2023-03-12T19:29:11.039Z,100310.75
2023-03-12T19:31:43.356Z,100309.00
2023-03-12T19:34:17.500Z,100313.84
2023-03-12T19:36:49.634Z,100315.22
2023-03-12T19:39:21.915Z,100321.31
2023-03-12T19:41:59.436Z,100311.53
2023-03-12T19:44:34.310Z,100311.84
2023-03-12T19:47:08.429Z,100317.28
2023-03-12T19:49:40.386Z,100312.84
2023-03-12T19:52:13.720Z,100315.03
2023-03-12T19:54:54.587Z,100314.13
2023-03-12T19:57:38.837Z,100308.34
2023-03-12T20:00:16.033Z,100316.25
2023-03-12T20:02:49.543Z,100314.91
2023-03-12T20:05:21.759Z,100307.97
2023-03-12T20:07:55.542Z,100310.63
2023-03-12T20:10:29.468Z,100320.59
2023-03-12T20:13:04.447Z,100320.16
2023-03-12T20:15:40.009Z,100314.88
2023-03-12T20:18:12.361Z,100293.34
2023-03-12T20:20:44.136Z,100296.59
2023-03-12T20:23:16.533Z,100295.97
2023-03-12T20:25:53.697Z,100306.47
2023-03-12T20:28:28.352Z,100303.06
2023-03-12T20:30:59.679Z,100294.31
2023-03-12T20:33:31.506Z,100289.53
2023-03-12T20:36:02.595Z,100288.69
2023-03-12T20:38:34.207Z,100292.56
2023-03-12T20:41:07.504Z,100286.78
2023-03-12T20:43:41.676Z,100281.44
2023-03-12T20:46:15.614Z,100285.59
2023-03-12T20:48:50.998Z,100287.97
2023-03-12T20:51:22.678Z,100288.94
2023-03-12T20:53:54.854Z,100283.50
2023-03-12T20:56:26.400Z,100297.78
2023-03-12T20:59:01.361Z,100304.09
2023-03-12T21:01:33.340Z,100298.13
2023-03-12T21:04:07.613Z,100297.94
2023-03-12T21:06:39.011Z,100296.69
2023-03-12T21:09:11.045Z,100318.31
2023-03-12T21:11:42.767Z,100312.00
2023-03-12T21:14:17.352Z,100314.66
2023-03-12T21:16:48.814Z,100310.19
2023-03-12T21:19:21.551Z,100305.84
2023-03-12T21:21:53.157Z,100315.09
2023-03-12T21:24:27.328Z,100314.78
2023-03-12T21:26:58.747Z,100311.28
2023-03-12T21:29:33.055Z,100317.59
2023-03-12T21:32:04.305Z,100307.94
2023-03-12T21:34:37.108Z,100309.75
2023-03-12T21:37:08.377Z,100304.84
2023-03-12T21:39:40.455Z,100300.66
2023-03-12T21:42:12.204Z,100283.28
2023-03-12T21:44:47.356Z,100277.81
2023-03-12T21:47:18.914Z,100282.56
2023-03-12T21:49:51.382Z,100284.41
2023-03-12T21:52:22.796Z,100282.72
2023-03-12T21:54:54.414Z,100298.16
2023-03-12T21:57:26.295Z,100300.81
2023-03-12T22:00:06.453Z,100299.94
2023-03-12T22:02:37.794Z,100296.47
2023-03-12T22:05:11.357Z,100291.13
2023-03-12T22:07:43.026Z,100301.22
2023-03-12T22:10:15.206Z,100296.59
2023-03-12T22:12:47.054Z,100289.03
2023-03-12T22:15:24.117Z,100298.41
2023-03-12T22:17:56.372Z,100297.88
2023-03-12T22:20:28.190Z,100290.31
2023-03-12T22:22:59.498Z,100292.25
2023-03-12T22:25:33.309Z,100287.09
2023-03-12T22:28:05.057Z,100285.94
2023-03-12T22:30:40.320Z,100287.78
2023-03-12T22:33:12.934Z,100296.88
2023-03-12T22:35:49.192Z,100293.94
2023-03-12T22:38:21.537Z,100289.72
2023-03-12T22:40:55.785Z,100289.44
2023-03-12T22:43:29.151Z,100277.81
2023-03-12T22:46:04.492Z,100274.00
2023-03-12T22:48:37.136Z,100277.81
2023-03-12T22:51:10.430Z,100277.09
2023-03-12T22:53:42.951Z,100275.69
2023-03-12T22:56:16.937Z,100284.50
2023-03-12T22:58:49.199Z,100284.03
2023-03-12T23:04:24.164Z,100280.53
2023-03-12T23:07:12.919Z,100274.00
2023-03-12T23:09:46.240Z,100281.84
2023-03-12T23:12:18.437Z,100276.22
2023-03-12T23:14:52.660Z,100271.63
2023-03-12T23:17:27.345Z,100271.19
2023-03-12T23:19:58.831Z,100270.59
2023-03-12T23:22:32.401Z,100270.72
2023-03-12T23:25:04.361Z,100261.19
2023-03-12T23:27:37.290Z,100268.19
2023-03-12T23:30:10.666Z,100264.16
2023-03-12T23:32:45.977Z,100266.38
2023-03-12T23:35:18.466Z,100262.72
2023-03-12T23:37:52.164Z,100264.25
2023-03-12T23:40:24.081Z,100259.72
2023-03-12T23:42:56.849Z,100260.56
2023-03-12T23:45:28.884Z,100254.25
2023-03-12T23:48:04.047Z,100256.09
2023-03-12T23:50:37.029Z,100252.69
2023-03-12T23:53:09.337Z,100250.84
2023-03-12T23:55:41.370Z,100256.75
2023-03-12T23:58:13.746Z,100258.72
